Time;durP1;ratioP1;P1;durP2;ratioP2;P2;SDS_P1;SDS_P2;PMS_P1;PMS_P2;Temp;Humidity;BMP_temperature;BMP_pressure;BME280_temperature;BME280_humidity;BME280_pressure;Samples;Min_cycle;Max_cycle;Signal;HPM_P1;HPM_P2
2023/09/07 00:01:55;;;;;;;0.80;0.80;;;23.40;68.40;;;;;;5101684;28;20034;-65
2023/09/07 00:04:22;;;;;;;1.95;1.05;;;23.40;68.40;;;;;;5109346;28;20458;-65
2023/09/07 00:06:49;;;;;;;0.98;0.90;;;23.30;68.40;;;;;;5109484;28;20099;-65
2023/09/07 00:09:18;;;;;;;1.08;0.90;;;23.30;69.10;;;;;;5109558;28;20454;-66
2023/09/07 00:11:44;;;;;;;1.10;0.82;;;23.20;68.50;;;;;;5109755;28;20040;-65
2023/09/07 00:14:10;;;;;;;1.27;0.95;;;23.30;68.60;;;;;;5107478;28;20035;-65
2023/09/07 00:16:35;;;;;;;1.23;1.13;;;23.20;68.70;;;;;;5090933;28;20383;-65
2023/09/07 00:19:04;;;;;;;1.35;1.13;;;23.10;68.70;;;;;;5107134;28;20031;-64
2023/09/07 00:21:30;;;;;;;1.20;1.10;;;23.10;68.90;;;;;;5110054;28;20428;-64
2023/09/07 00:23:56;;;;;;;1.92;1.00;;;23.10;68.90;;;;;;5107568;28;20110;-65
2023/09/07 00:26:22;;;;;;;1.35;1.25;;;23.00;69.00;;;;;;5106309;28;20168;-66
2023/09/07 00:28:47;;;;;;;2.38;1.00;;;23.00;69.70;;;;;;5106693;28;20032;-65
2023/09/07 00:31:13;;;;;;;1.27;1.02;;;23.00;69.20;;;;;;5109798;28;20558;-64
2023/09/07 00:33:39;;;;;;;1.77;1.50;;;22.90;69.30;;;;;;5108523;27;20035;-64
2023/09/07 00:36:05;;;;;;;1.17;0.82;;;22.90;69.40;;;;;;5101424;28;20487;-66
2023/09/07 00:38:31;;;;;;;1.23;0.95;;;22.90;69.50;;;;;;5105602;28;20028;-65
2023/09/07 00:40:56;;;;;;;0.85;0.82;;;22.80;69.40;;;;;;5109630;28;20027;-66
2023/09/07 00:43:22;;;;;;;1.30;1.13;;;22.80;69.40;;;;;;5104646;28;20024;-66
2023/09/07 00:45:48;;;;;;;1.20;1.05;;;22.70;69.50;;;;;;5108103;28;20034;-65
2023/09/07 00:48:17;;;;;;;1.20;1.10;;;22.70;69.60;;;;;;5107325;28;20027;-64
2023/09/07 00:50:43;;;;;;;1.35;1.05;;;22.70;69.60;;;;;;5107963;28;20044;-64
2023/09/07 00:53:11;;;;;;;1.23;1.10;;;22.60;69.70;;;;;;5104500;28;20085;-64
2023/09/07 00:55:37;;;;;;;1.10;1.00;;;22.60;69.70;;;;;;5107804;28;20039;-65
2023/09/07 00:58:04;;;;;;;1.25;1.08;;;22.60;69.80;;;;;;5105403;28;20051;-65
2023/09/07 01:00:30;;;;;;;1.48;1.23;;;22.60;69.90;;;;;;5104990;28;20035;-66
2023/09/07 01:02:56;;;;;;;0.88;0.88;;;22.50;69.90;;;;;;5108000;28;20027;-66
2023/09/07 01:05:29;;;;;;;1.63;1.10;;;22.50;69.90;;;;;;5107353;28;20089;-66
2023/09/07 01:08:03;;;;;;;5.05;1.10;;;22.40;69.90;;;;;;5109383;28;20020;-64
2023/09/07 01:10:28;;;;;;;1.10;0.98;;;22.40;70.00;;;;;;5104484;28;20015;-64
2023/09/07 01:12:54;;;;;;;1.10;1.00;;;22.40;70.10;;;;;;5106737;28;20051;-65
2023/09/07 01:15:20;;;;;;;1.10;1.00;;;22.40;70.20;;;;;;5107019;28;20039;-66
2023/09/07 01:17:45;;;;;;;0.70;0.60;;;22.30;70.20;;;;;;5107238;28;20445;-66
2023/09/07 01:20:16;;;;;;;1.33;0.98;;;22.30;70.30;;;;;;5108574;28;20036;-66
2023/09/07 01:22:43;;;;;;;1.95;1.30;;;22.30;70.30;;;;;;5102930;28;20031;-65
2023/09/07 01:25:09;;;;;;;2.67;1.45;;;22.30;70.40;;;;;;5107449;28;20043;-64
2023/09/07 01:27:35;;;;;;;1.10;1.00;;;22.20;70.50;;;;;;5102697;28;20027;-64
2023/09/07 01:30:03;;;;;;;1.63;1.00;;;22.20;70.50;;;;;;5108262;28;20072;-65
2023/09/07 01:32:28;;;;;;;1.85;1.17;;;22.20;70.50;;;;;;5104514;28;20051;-64
2023/09/07 01:34:58;;;;;;;1.50;0.98;;;22.10;70.60;;;;;;5104599;28;20490;-64
2023/09/07 01:37:23;;;;;;;1.38;1.08;;;22.10;70.70;;;;;;5107772;28;20053;-64
2023/09/07 01:39:50;;;;;;;0.80;0.80;;;22.10;70.80;;;;;;5109273;28;20478;-65
2023/09/07 01:42:15;;;;;;;1.73;1.10;;;22.10;70.80;;;;;;5107575;28;20534;-64
2023/09/07 01:44:43;;;;;;;2.55;1.17;;;22.00;70.90;;;;;;5108496;28;20034;-65
2023/09/07 01:47:08;;;;;;;1.00;0.90;;;22.00;70.90;;;;;;5106989;28;20073;-65
2023/09/07 01:49:34;;;;;;;1.27;1.17;;;22.00;71.10;;;;;;5111304;28;20036;-64
2023/09/07 01:52:00;;;;;;;2.58;1.63;;;22.00;71.10;;;;;;5111935;28;20024;-64
2023/09/07 01:54:25;;;;;;;1.60;0.88;;;22.00;71.10;;;;;;5113490;28;20085;-64
2023/09/07 01:56:51;;;;;;;3.63;1.55;;;22.00;71.10;;;;;;5111344;28;20036;-64
2023/09/07 01:59:17;;;;;;;1.92;1.20;;;21.90;71.10;;;;;;5111987;28;20024;-64
2023/09/07 02:01:42;;;;;;;1.27;1.13;;;21.90;71.20;;;;;;5108498;28;20044;-64
2023/09/07 02:04:08;;;;;;;0.70;0.70;;;21.90;71.30;;;;;;5113057;28;20038;-64
2023/09/07 02:06:34;;;;;;;1.25;1.10;;;21.80;71.40;;;;;;5108340;28;20040;-64
2023/09/07 02:09:00;;;;;;;2.50;1.55;;;21.80;71.60;;;;;;5112848;28;20034;-65
2023/09/07 02:11:26;;;;;;;1.42;0.90;;;21.80;71.60;;;;;;5111394;28;20537;-65
2023/09/07 02:13:51;;;;;;;0.95;0.88;;;21.80;71.60;;;;;;5112094;28;20489;-65
2023/09/07 02:16:18;;;;;;;2.05;1.00;;;21.80;71.70;;;;;;5111388;28;20028;-65
2023/09/07 02:18:46;;;;;;;1.60;0.82;;;21.70;71.60;;;;;;5111948;28;20457;-65
2023/09/07 02:21:12;;;;;;;1.27;0.98;;;21.70;71.70;;;;;;5112237;28;20031;-65
2023/09/07 02:23:38;;;;;;;1.52;1.27;;;21.80;71.70;;;;;;5111247;28;20036;-65
2023/09/07 02:26:04;;;;;;;1.10;1.00;;;21.70;72.30;;;;;;5111617;28;20047;-65
2023/09/07 02:28:30;;;;;;;2.35;0.95;;;21.70;71.70;;;;;;5110518;27;20383;-64
2023/09/07 02:31:03;;;;;;;1.40;1.30;;;21.70;71.70;;;;;;5112247;28;20034;-64
2023/09/07 02:33:29;;;;;;;1.20;0.88;;;21.70;71.70;;;;;;5106282;28;20035;-65
2023/09/07 02:35:54;;;;;;;2.63;1.83;;;21.60;71.80;;;;;;5106927;28;20363;-64
2023/09/07 02:38:20;;;;;;;1.13;0.80;;;21.60;71.80;;;;;;5107678;27;20027;-66
2023/09/07 02:40:46;;;;;;;1.20;1.10;;;21.60;71.80;;;;;;5111761;27;20111;-66
2023/09/07 02:43:12;;;;;;;1.58;1.48;;;21.60;71.90;;;;;;5110334;27;20044;-65
2023/09/07 02:45:38;;;;;;;0.93;0.93;;;21.50;71.90;;;;;;5111350;28;20039;-64
2023/09/07 02:48:05;;;;;;;1.40;1.30;;;21.50;71.90;;;;;;5107671;28;20531;-64
2023/09/07 02:50:33;;;;;;;1.35;1.17;;;21.50;72.00;;;;;;5110425;28;20023;-64
2023/09/07 02:53:00;;;;;;;1.02;0.98;;;21.50;71.90;;;;;;5111403;28;20024;-65
2023/09/07 02:55:26;;;;;;;4.05;1.20;;;21.40;71.90;;;;;;5110969;28;20482;-66
2023/09/07 02:57:53;;;;;;;0.95;0.93;;;21.40;72.00;;;;;;5109010;27;20467;-65
2023/09/07 03:00:19;;;;;;;1.30;1.20;;;21.40;72.00;;;;;;5110497;27;20043;-65
2023/09/07 03:02:45;;;;;;;1.73;1.10;;;21.40;72.00;;;;;;5110029;28;20346;-66
2023/09/07 03:05:10;;;;;;;1.55;1.20;;;21.40;72.10;;;;;;5109782;27;20031;-66
2023/09/07 03:07:36;;;;;;;1.23;0.90;;;21.30;72.10;;;;;;5107693;28;20031;-66
2023/09/07 03:10:02;;;;;;;1.20;1.10;;;21.30;72.10;;;;;;5110502;27;20033;-64
2023/09/07 03:12:28;;;;;;;1.10;0.90;;;21.30;72.10;;;;;;5106109;27;20399;-64
2023/09/07 03:14:54;;;;;;;1.25;0.93;;;21.20;72.10;;;;;;5109290;28;20367;-64
2023/09/07 03:17:22;;;;;;;1.33;0.90;;;21.20;72.20;;;;;;5108606;28;20027;-63
2023/09/07 03:19:48;;;;;;;1.30;1.10;;;21.20;72.30;;;;;;5107095;28;20034;-64
2023/09/07 03:22:14;;;;;;;1.20;1.10;;;21.10;72.30;;;;;;5106464;28;20036;-64
2023/09/07 03:24:40;;;;;;;1.00;0.90;;;21.10;72.30;;;;;;5109238;27;20059;-64
2023/09/07 03:27:06;;;;;;;0.70;0.70;;;21.10;72.50;;;;;;5104167;28;20402;-65
2023/09/07 03:29:35;;;;;;;2.47;1.20;;;21.10;72.30;;;;;;5107018;27;20098;-64
2023/09/07 03:32:01;;;;;;;0.93;0.88;;;21.00;72.40;;;;;;5106455;28;20467;-65
2023/09/07 03:34:27;;;;;;;1.48;1.02;;;21.00;72.50;;;;;;5104616;27;20100;-65
2023/09/07 03:36:53;;;;;;;1.63;0.95;;;21.00;72.60;;;;;;5104240;27;20081;-64
2023/09/07 03:39:18;;;;;;;1.50;1.00;;;20.90;72.50;;;;;;5103231;28;20051;-65
2023/09/07 03:41:44;;;;;;;3.88;0.90;;;20.90;72.60;;;;;;5109474;28;20024;-65
2023/09/07 03:44:10;;;;;;;1.30;1.20;;;20.90;72.70;;;;;;5109764;28;20027;-65
2023/09/07 03:46:36;;;;;;;1.13;1.02;;;20.90;72.60;;;;;;5110108;28;20039;-65
2023/09/07 03:49:02;;;;;;;2.28;1.23;;;20.80;72.60;;;;;;5109418;27;20096;-65
2023/09/07 03:51:28;;;;;;;1.38;1.20;;;20.80;72.50;;;;;;5106958;28;20048;-65
2023/09/07 03:53:53;;;;;;;1.02;0.90;;;20.80;72.60;;;;;;5109306;28;21058;-65
2023/09/07 03:56:19;;;;;;;0.80;0.80;;;20.80;72.50;;;;;;5107214;28;20027;-66
2023/09/07 03:58:47;;;;;;;1.95;1.05;;;20.80;72.50;;;;;;5107410;28;20402;-66
2023/09/07 04:01:13;;;;;;;1.20;1.02;;;20.80;72.60;;;;;;5109748;27;20106;-65
2023/09/07 04:03:40;;;;;;;1.30;0.82;;;20.70;72.70;;;;;;5105864;27;20107;-65
2023/09/07 04:06:06;;;;;;;2.55;1.35;;;20.70;72.70;;;;;;5108860;27;20028;-64
2023/09/07 04:08:32;;;;;;;2.03;1.00;;;20.70;72.70;;;;;;5107537;28;20039;-64
2023/09/07 04:11:03;;;;;;;1.15;1.02;;;20.70;72.70;;;;;;5102281;28;20073;-64
2023/09/07 04:13:29;;;;;;;1.80;1.35;;;20.70;72.80;;;;;;5105800;28;20044;-64
2023/09/07 04:15:54;;;;;;;1.42;1.00;;;20.60;72.80;;;;;;5103721;27;20430;-64
2023/09/07 04:18:20;;;;;;;1.67;1.00;;;20.60;72.80;;;;;;5104953;28;20484;-66
2023/09/07 04:20:46;;;;;;;1.23;1.10;;;20.60;72.90;;;;;;5106397;28;20054;-64
2023/09/07 04:23:11;;;;;;;1.17;1.00;;;20.50;72.80;;;;;;5099610;27;20655;-64
2023/09/07 04:25:38;;;;;;;1.60;0.80;;;20.60;72.90;;;;;;5100084;27;20111;-64
2023/09/07 04:28:05;;;;;;;1.50;1.20;;;20.50;72.90;;;;;;5105470;27;20031;-64
2023/09/07 04:30:31;;;;;;;0.85;0.80;;;20.50;73.00;;;;;;5104146;28;20047;-64
2023/09/07 04:32:59;;;;;;;1.33;1.23;;;20.50;73.00;;;;;;5106692;27;20401;-65
2023/09/07 04:35:30;;;;;;;1.05;0.93;;;20.50;73.00;;;;;;5093206;28;20414;-65
2023/09/07 04:37:56;;;;;;;1.15;1.00;;;20.40;73.00;;;;;;5104624;27;20031;-65
2023/09/07 04:40:22;;;;;;;1.42;1.10;;;20.50;73.20;;;;;;5106218;28;20066;-66
2023/09/07 04:42:48;;;;;;;2.15;1.02;;;20.40;73.00;;;;;;5109910;27;20059;-66
2023/09/07 04:45:14;;;;;;;1.50;1.17;;;20.40;73.10;;;;;;5105958;28;20423;-65
2023/09/07 04:47:39;;;;;;;2.10;1.30;;;20.40;73.20;;;;;;5111424;27;20432;-66
2023/09/07 04:50:06;;;;;;;1.33;1.00;;;20.30;73.30;;;;;;5105013;28;20060;-65
2023/09/07 04:52:32;;;;;;;1.23;1.13;;;20.30;73.30;;;;;;5107398;27;20398;-65
2023/09/07 04:54:58;;;;;;;0.95;0.90;;;20.30;73.20;;;;;;5098664;27;20027;-66
2023/09/07 04:57:23;;;;;;;1.52;1.00;;;20.30;73.30;;;;;;5105777;28;20034;-64
2023/09/07 04:59:49;;;;;;;1.33;1.15;;;20.30;73.30;;;;;;5106153;27;20027;-64
2023/09/07 05:02:15;;;;;;;1.88;1.27;;;20.30;73.40;;;;;;5108016;28;20459;-65
2023/09/07 05:04:40;;;;;;;1.17;1.08;;;20.30;73.50;;;;;;5104427;28;20070;-64
2023/09/07 05:07:06;;;;;;;1.25;0.93;;;20.30;73.50;;;;;;5107225;28;20020;-65
2023/09/07 05:09:33;;;;;;;1.83;1.08;;;20.30;73.40;;;;;;5087731;28;20084;-65
2023/09/07 05:11:58;;;;;;;1.10;0.73;;;20.30;73.50;;;;;;5080247;28;20522;-64
2023/09/07 05:14:25;;;;;;;2.55;1.77;;;20.30;73.40;;;;;;5101567;28;20054;-66
2023/09/07 05:16:51;;;;;;;1.42;1.30;;;20.30;73.60;;;;;;5100556;28;20088;-65
2023/09/07 05:19:16;;;;;;;1.83;1.00;;;20.30;73.50;;;;;;5103120;28;20028;-64
2023/09/07 05:21:42;;;;;;;1.88;1.35;;;20.40;73.50;;;;;;5108562;28;20020;-64
2023/09/07 05:24:08;;;;;;;1.90;1.33;;;20.40;73.50;;;;;;5109708;28;20027;-64
2023/09/07 05:26:34;;;;;;;2.53;1.67;;;20.40;73.50;;;;;;5110005;28;20045;-64
2023/09/07 05:28:59;;;;;;;0.93;0.85;;;20.50;73.60;;;;;;5105282;27;20525;-65
2023/09/07 05:31:25;;;;;;;2.28;1.17;;;20.50;73.60;;;;;;5103977;27;20070;-64
2023/09/07 05:33:51;;;;;;;1.65;1.02;;;20.50;73.50;;;;;;5111721;28;20051;-65
2023/09/07 05:36:17;;;;;;;1.73;1.30;;;20.50;73.60;;;;;;5108524;27;20089;-65
2023/09/07 05:38:43;;;;;;;1.45;1.35;;;20.50;73.60;;;;;;5105019;27;20036;-65
2023/09/07 05:41:09;;;;;;;1.10;1.00;;;20.60;73.60;;;;;;5111344;27;20027;-65
2023/09/07 05:43:35;;;;;;;1.00;0.90;;;20.60;73.50;;;;;;5109465;28;20067;-65
2023/09/07 05:46:01;;;;;;;1.67;1.15;;;20.70;73.60;;;;;;5108889;28;20371;-67
2023/09/07 05:48:26;;;;;;;2.60;1.88;;;20.70;73.50;;;;;;5110617;27;20039;-66
2023/09/07 05:50:52;;;;;;;1.38;0.85;;;20.80;73.50;;;;;;5102809;28;20024;-67
2023/09/07 05:53:21;;;;;;;1.80;0.95;;;20.80;73.40;;;;;;5099915;27;20020;-66
2023/09/07 05:55:47;;;;;;;2.03;0.98;;;20.90;73.40;;;;;;5104512;28;20032;-65
2023/09/07 05:58:13;;;;;;;1.45;1.15;;;20.90;73.30;;;;;;5104608;28;20038;-67
2023/09/07 06:00:39;;;;;;;1.95;1.25;;;21.00;73.30;;;;;;5107413;28;20531;-67
2023/09/07 06:03:09;;;;;;;1.10;1.00;;;21.00;73.20;;;;;;5109848;28;20479;-66
2023/09/07 06:05:36;;;;;;;1.35;1.08;;;21.10;73.20;;;;;;5075034;28;20501;-66
2023/09/07 06:08:01;;;;;;;1.17;1.05;;;21.10;73.00;;;;;;5109765;28;20444;-66
2023/09/07 06:10:30;;;;;;;1.10;1.00;;;21.20;72.80;;;;;;5109111;28;20119;-66
2023/09/07 06:12:57;;;;;;;1.17;1.08;;;21.30;72.70;;;;;;5104109;28;20040;-67
2023/09/07 06:15:23;;;;;;;1.02;0.82;;;21.40;72.80;;;;;;5105586;27;20034;-66
2023/09/07 06:17:49;;;;;;;1.30;1.05;;;21.40;72.60;;;;;;5107180;28;20028;-66
2023/09/07 06:20:15;;;;;;;1.23;1.00;;;21.50;72.60;;;;;;5106563;27;20045;-67
2023/09/07 06:22:41;;;;;;;3.25;0.98;;;21.60;72.50;;;;;;5107811;28;20402;-67
2023/09/07 06:25:07;;;;;;;1.10;0.90;;;21.60;72.40;;;;;;5104415;28;20032;-66
2023/09/07 06:27:33;;;;;;;1.65;1.10;;;21.70;72.30;;;;;;5107987;28;20555;-66
2023/09/07 06:29:59;;;;;;;3.25;1.35;;;21.80;72.20;;;;;;5107126;28;20031;-65
2023/09/07 06:32:24;;;;;;;1.48;1.20;;;21.80;72.00;;;;;;5106774;28;20462;-65
2023/09/07 06:34:50;;;;;;;2.83;1.38;;;21.90;72.00;;;;;;5107330;28;20028;-65
2023/09/07 06:37:16;;;;;;;1.38;1.17;;;21.90;71.90;;;;;;5104241;28;20490;-65
2023/09/07 06:39:45;;;;;;;1.02;0.93;;;21.90;71.80;;;;;;5105604;27;20053;-65
2023/09/07 06:42:10;;;;;;;0.95;0.85;;;22.00;71.70;;;;;;5110175;28;20039;-65
2023/09/07 06:44:36;;;;;;;1.33;0.90;;;22.10;71.60;;;;;;5108768;27;20031;-66
2023/09/07 06:47:02;;;;;;;1.95;1.17;;;22.10;71.40;;;;;;5108529;28;20370;-66
2023/09/07 06:49:29;;;;;;;1.35;1.17;;;22.20;71.30;;;;;;5098890;27;20137;-67
2023/09/07 06:51:56;;;;;;;2.15;1.77;;;22.20;71.10;;;;;;5102457;27;20152;-66
2023/09/07 06:54:22;;;;;;;2.17;1.67;;;22.30;71.10;;;;;;5105384;28;20111;-66
2023/09/07 06:56:47;;;;;;;1.15;1.00;;;22.30;71.10;;;;;;5105644;28;20107;-66
2023/09/07 06:59:14;;;;;;;1.27;0.90;;;22.40;71.10;;;;;;5100920;28;20454;-66
2023/09/07 07:01:39;;;;;;;1.45;0.90;;;22.40;70.90;;;;;;5104238;28;20490;-66
2023/09/07 07:04:05;;;;;;;1.83;1.20;;;22.50;70.80;;;;;;5108754;28;20070;-66
2023/09/07 07:06:32;;;;;;;1.90;1.38;;;22.50;70.60;;;;;;5106832;28;20072;-66
2023/09/07 07:08:57;;;;;;;1.20;1.00;;;22.60;70.70;;;;;;5110649;28;20020;-66
2023/09/07 07:11:23;;;;;;;1.88;1.20;;;22.60;71.00;;;;;;5108497;28;20111;-64
2023/09/07 07:13:49;;;;;;;3.17;1.20;;;22.70;70.40;;;;;;5107966;28;20032;-65
2023/09/07 07:16:15;;;;;;;1.73;1.15;;;22.70;70.30;;;;;;5109661;28;20028;-66
2023/09/07 07:18:41;;;;;;;1.50;1.08;;;22.80;70.20;;;;;;5107868;28;20439;-65
2023/09/07 07:21:08;;;;;;;1.00;1.00;;;22.80;70.20;;;;;;5091525;28;20080;-66
2023/09/07 07:23:34;;;;;;;1.30;1.10;;;22.80;70.20;;;;;;5106375;28;20085;-66
2023/09/07 07:26:00;;;;;;;1.33;1.10;;;22.80;70.00;;;;;;5109339;28;20036;-66
2023/09/07 07:28:26;;;;;;;1.80;1.27;;;22.90;70.00;;;;;;5109276;28;20073;-66
2023/09/07 07:30:53;;;;;;;3.63;1.48;;;22.90;70.40;;;;;;5107232;28;20479;-66
2023/09/07 07:33:19;;;;;;;1.35;0.98;;;23.00;69.70;;;;;;5109224;27;20023;-66
2023/09/07 07:35:45;;;;;;;2.05;0.93;;;23.00;69.60;;;;;;5108833;28;20035;-66
2023/09/07 07:38:13;;;;;;;1.40;1.30;;;23.10;69.40;;;;;;5107334;28;20470;-65
2023/09/07 07:40:39;;;;;;;1.52;1.10;;;23.20;69.20;;;;;;5106237;28;20794;-65
2023/09/07 07:43:06;;;;;;;1.92;1.00;;;23.20;69.00;;;;;;5106258;28;20031;-65
2023/09/07 07:45:36;;;;;;;1.45;1.15;;;23.30;68.90;;;;;;5107513;28;20039;-66
2023/09/07 07:48:05;;;;;;;1.88;1.08;;;23.30;68.70;;;;;;5106863;28;20024;-67
2023/09/07 07:50:31;;;;;;;0.73;0.73;;;23.50;68.70;;;;;;5107249;28;20069;-66
2023/09/07 07:52:57;;;;;;;1.08;0.93;;;23.60;68.50;;;;;;5109366;28;20394;-64
2023/09/07 07:55:22;;;;;;;1.33;1.08;;;23.60;68.30;;;;;;5108349;28;20133;-64
2023/09/07 07:57:48;;;;;;;1.55;1.23;;;23.70;68.10;;;;;;5102014;28;20459;-64
2023/09/07 08:00:14;;;;;;;1.02;0.80;;;23.80;68.10;;;;;;5109364;28;20386;-65
2023/09/07 08:02:40;;;;;;;1.48;1.25;;;23.80;67.90;;;;;;5105738;28;20027;-66
2023/09/07 08:05:06;;;;;;;1.40;1.30;;;23.90;67.80;;;;;;5107542;28;20425;-66
2023/09/07 08:07:31;;;;;;;1.20;1.10;;;24.00;67.60;;;;;;5103586;28;20035;-67
2023/09/07 08:09:57;;;;;;;2.85;1.42;;;24.00;67.40;;;;;;5105644;28;20027;-65
2023/09/07 08:12:23;;;;;;;1.42;1.20;;;24.10;67.30;;;;;;5107400;28;20398;-66
2023/09/07 08:14:48;;;;;;;1.02;0.90;;;24.20;66.90;;;;;;5102455;27;20132;-64
2023/09/07 08:17:14;;;;;;;1.50;1.10;;;24.30;66.70;;;;;;5102011;28;20027;-64
2023/09/07 08:19:40;;;;;;;1.58;1.48;;;24.40;66.30;;;;;;5099372;27;20031;-66
2023/09/07 08:22:06;;;;;;;1.20;1.10;;;24.40;66.20;;;;;;5100911;27;20386;-65
2023/09/07 08:24:32;;;;;;;1.10;0.90;;;24.50;66.10;;;;;;5106892;28;20027;-66
2023/09/07 08:26:59;;;;;;;1.00;1.00;;;24.60;66.00;;;;;;5105257;28;20020;-66
2023/09/07 08:29:26;;;;;;;1.73;1.00;;;24.70;65.80;;;;;;5102838;28;20241;-65
2023/09/07 08:31:57;;;;;;;1.95;1.25;;;24.80;65.70;;;;;;5107643;28;20016;-66
2023/09/07 08:34:23;;;;;;;1.05;0.90;;;24.90;65.70;;;;;;5108412;27;20035;-66
2023/09/07 08:36:53;;;;;;;2.58;1.20;;;24.90;65.50;;;;;;5102970;28;20427;-63
2023/09/07 08:39:21;;;;;;;1.42;1.10;;;25.00;65.30;;;;;;5106353;28;20092;-65
2023/09/07 08:41:47;;;;;;;1.48;1.33;;;25.10;65.20;;;;;;5101738;28;20051;-67
2023/09/07 08:44:17;;;;;;;2.38;1.52;;;25.10;65.10;;;;;;5087562;27;20446;-67
2023/09/07 08:46:44;;;;;;;1.55;1.13;;;25.20;65.10;;;;;;5098933;28;20078;-67
2023/09/07 08:49:11;;;;;;;3.47;1.85;;;25.20;65.00;;;;;;5091097;27;20379;-67
2023/09/07 08:51:38;;;;;;;1.48;1.23;;;25.30;65.00;;;;;;5079624;28;20058;-65
2023/09/07 08:54:08;;;;;;;1.10;1.00;;;25.40;64.90;;;;;;5103091;28;20065;-64
2023/09/07 08:56:34;;;;;;;1.85;1.42;;;25.50;64.90;;;;;;5107503;28;20035;-64
2023/09/07 08:58:59;;;;;;;1.98;1.33;;;25.60;64.80;;;;;;5107730;28;20032;-63
2023/09/07 09:01:25;;;;;;;1.13;0.90;;;25.70;64.60;;;;;;5108597;28;20110;-63
2023/09/07 09:03:51;;;;;;;2.85;1.73;;;25.80;64.60;;;;;;5108515;28;20031;-64
2023/09/07 09:06:18;;;;;;;1.23;1.13;;;25.90;64.40;;;;;;5105121;28;20496;-63
2023/09/07 09:08:52;;;;;;;2.15;1.33;;;26.00;64.30;;;;;;5108748;28;20539;-64
2023/09/07 09:11:19;;;;;;;1.85;1.40;;;26.10;64.20;;;;;;5109434;28;20467;-63
2023/09/07 09:13:46;;;;;;;2.72;1.60;;;26.10;64.00;;;;;;5107319;28;20043;-63
2023/09/07 09:16:14;;;;;;;2.75;1.20;;;26.20;64.00;;;;;;5108632;28;20019;-64
2023/09/07 09:18:57;;;;;;;1.40;1.05;;;26.30;63.90;;;;;;5108676;28;20046;-63
2023/09/07 09:21:25;;;;;;;1.23;1.10;;;26.50;63.80;;;;;;5105291;28;20098;-64
2023/09/07 09:23:57;;;;;;;1.27;1.08;;;26.60;63.60;;;;;;5109459;28;20402;-64
2023/09/07 09:26:23;;;;;;;1.85;1.40;;;26.70;63.50;;;;;;5106905;28;20036;-64
2023/09/07 09:28:52;;;;;;;1.17;1.02;;;26.80;63.40;;;;;;5108739;28;20486;-63
2023/09/07 09:31:18;;;;;;;1.33;1.23;;;26.90;63.40;;;;;;5108640;28;20024;-65
2023/09/07 09:33:48;;;;;;;2.75;1.67;;;26.90;63.10;;;;;;5109236;28;20032;-65
2023/09/07 09:36:14;;;;;;;1.73;1.17;;;27.10;63.00;;;;;;5102998;28;20034;-65
2023/09/07 09:38:40;;;;;;;1.30;1.10;;;27.20;62.80;;;;;;5100138;28;20387;-65
2023/09/07 09:41:07;;;;;;;1.90;1.67;;;27.30;62.70;;;;;;5109056;28;20057;-65
2023/09/07 09:43:33;;;;;;;2.03;1.30;;;27.50;62.60;;;;;;5107318;28;20043;-65
2023/09/07 09:46:00;;;;;;;1.92;1.55;;;27.60;62.40;;;;;;5107865;28;20386;-64
2023/09/07 09:48:28;;;;;;;1.73;1.10;;;27.70;62.10;;;;;;5090373;28;20028;-64
2023/09/07 09:50:53;;;;;;;1.33;1.20;;;27.70;61.80;;;;;;5108925;28;20501;-64
2023/09/07 09:53:20;;;;;;;1.35;1.23;;;27.90;61.70;;;;;;5108764;28;20024;-64
2023/09/07 09:55:52;;;;;;;2.00;1.65;;;28.00;61.30;;;;;;5107257;28;20469;-64
2023/09/07 09:58:18;;;;;;;;;;;28.20;61.20;;;;;;5103312;28;20039;-64
2023/09/07 10:00:52;;;;;;;1.42;1.27;;;28.30;61.00;;;;;;5108810;28;19952;-65
2023/09/07 10:03:37;;;;;;;1.38;1.00;;;28.40;60.80;;;;;;5103083;28;20394;-65
2023/09/07 10:06:10;;;;;;;2.00;1.40;;;28.50;60.70;;;;;;5103903;28;20035;-65
2023/09/07 10:08:35;;;;;;;1.80;1.05;;;28.70;60.50;;;;;;5107599;28;20058;-65
2023/09/07 10:11:09;;;;;;;1.77;1.55;;;28.80;60.10;;;;;;5111206;28;20163;-64
2023/09/07 10:13:35;;;;;;;2.53;1.42;;;28.90;59.60;;;;;;5107932;28;20039;-64
2023/09/07 10:16:09;;;;;;;2.50;1.10;;;29.00;59.30;;;;;;5112213;28;20036;-64
2023/09/07 10:18:36;;;;;;;2.13;1.10;;;29.10;59.20;;;;;;5111976;28;20092;-64
2023/09/07 10:21:02;;;;;;;1.65;1.15;;;29.20;58.60;;;;;;5112398;28;20024;-64
2023/09/07 10:23:45;;;;;;;1.23;0.90;;;29.40;58.60;;;;;;5112423;28;20027;-64
2023/09/07 10:26:16;;;;;;;1.45;1.35;;;29.60;58.30;;;;;;5110125;28;20398;-64
2023/09/07 10:28:43;;;;;;;1.10;1.00;;;29.70;57.90;;;;;;5106186;28;20111;-64
2023/09/07 10:31:18;;;;;;;2.13;1.52;;;29.80;56.70;;;;;;5111653;28;20371;-65
2023/09/07 10:33:44;;;;;;;1.17;0.95;;;30.00;56.50;;;;;;5105735;28;20024;-65
2023/09/07 10:36:24;;;;;;;1.88;1.40;;;30.10;55.60;;;;;;5105589;28;20023;-65
2023/09/07 10:38:53;;;;;;;2.08;1.10;;;30.10;55.70;;;;;;5107153;28;20050;-64
2023/09/07 10:41:19;;;;;;;1.17;1.02;;;30.30;55.50;;;;;;5112091;28;20042;-64
2023/09/07 10:43:50;;;;;;;1.40;1.00;;;30.40;55.50;;;;;;5110197;28;20036;-64
2023/09/07 10:46:20;;;;;;;0.80;0.80;;;30.60;55.40;;;;;;5107747;28;20077;-64
2023/09/07 10:48:48;;;;;;;7.00;1.08;;;30.80;55.40;;;;;;5107823;28;20370;-64
2023/09/07 10:51:14;;;;;;;1.20;1.00;;;31.00;55.30;;;;;;5112039;28;20080;-64
2023/09/07 10:53:39;;;;;;;1.35;1.10;;;31.10;54.90;;;;;;5111512;28;20035;-65
2023/09/07 10:56:05;;;;;;;2.85;1.10;;;31.20;54.50;;;;;;5111449;28;20038;-64
2023/09/07 10:58:33;;;;;;;1.60;1.33;;;31.30;54.20;;;;;;5110819;28;20031;-64
2023/09/07 11:01:00;;;;;;;0.88;0.85;;;31.50;54.10;;;;;;5111982;28;20019;-64
2023/09/07 11:03:27;;;;;;;1.25;1.10;;;31.60;53.80;;;;;;5105492;28;20024;-65
2023/09/07 11:06:24;;;;;;;2.05;1.00;;;31.70;53.00;;;;;;5100042;28;20438;-65
2023/09/07 11:08:50;;;;;;;1.20;0.98;;;31.90;52.00;;;;;;5097435;27;20649;-65
2023/09/07 11:11:16;;;;;;;1.15;1.10;;;32.00;51.40;;;;;;5104912;28;20514;-65
2023/09/07 11:13:42;;;;;;;1.30;1.20;;;32.00;50.90;;;;;;5103207;28;20054;-65
2023/09/07 11:16:09;;;;;;;1.38;1.25;;;32.00;51.10;;;;;;5104839;28;20470;-65
2023/09/07 11:18:35;;;;;;;0.90;0.90;;;32.10;50.60;;;;;;5110470;27;20036;-65
2023/09/07 11:21:07;;;;;;;1.27;1.17;;;32.20;50.60;;;;;;5104930;28;20020;-65
2023/09/07 11:23:37;;;;;;;0.88;0.80;;;32.30;50.70;;;;;;5103350;27;20112;-64
2023/09/07 11:26:08;;;;;;;1.40;1.20;;;32.40;50.60;;;;;;5106434;27;20115;-65
2023/09/07 11:28:33;;;;;;;0.93;0.93;;;32.70;50.00;;;;;;5108578;27;20317;-65
2023/09/07 11:31:00;;;;;;;1.05;0.90;;;32.70;50.00;;;;;;5100121;27;20101;-64
2023/09/07 11:33:27;;;;;;;2.70;1.55;;;32.90;49.80;;;;;;5102539;28;20028;-65
2023/09/07 11:35:54;;;;;;;0.98;0.90;;;33.00;49.90;;;;;;5104033;28;20378;-65
2023/09/07 11:38:20;;;;;;;1.67;1.23;;;33.10;49.60;;;;;;5102040;28;20049;-64
2023/09/07 11:40:46;;;;;;;0.93;0.93;;;33.20;49.10;;;;;;5108069;28;20106;-64
2023/09/07 11:43:13;;;;;;;0.98;0.88;;;33.30;49.30;;;;;;5109951;27;20031;-64
2023/09/07 11:45:40;;;;;;;1.50;1.27;;;33.50;49.20;;;;;;5103649;27;20092;-64
2023/09/07 11:48:08;;;;;;;1.30;1.05;;;33.60;48.30;;;;;;5102397;27;20111;-63
2023/09/07 11:50:35;;;;;;;1.20;1.10;;;33.60;47.80;;;;;;5087994;27;20396;-65
2023/09/07 11:53:01;;;;;;;1.30;1.20;;;33.70;48.00;;;;;;5109278;27;20394;-65
2023/09/07 11:55:27;;;;;;;1.27;1.15;;;33.80;47.90;;;;;;5112199;27;20024;-66
2023/09/07 11:57:53;;;;;;;1.27;1.17;;;33.90;47.90;;;;;;5105204;28;20104;-66
2023/09/07 12:00:19;;;;;;;1.38;1.23;;;34.00;47.60;;;;;;5108385;28;20107;-66
2023/09/07 12:02:45;;;;;;;1.27;1.00;;;34.10;47.40;;;;;;5096595;28;20039;-65
2023/09/07 12:05:14;;;;;;;1.77;1.67;;;34.20;47.50;;;;;;5109721;27;20482;-65
2023/09/07 12:07:40;;;;;;;1.55;1.45;;;34.30;46.30;;;;;;5107336;28;20023;-64
2023/09/07 12:10:10;;;;;;;1.35;1.20;;;34.30;45.70;;;;;;5106973;28;20020;-65
2023/09/07 12:12:40;;;;;;;1.27;1.17;;;34.40;45.60;;;;;;5101947;28;20043;-63
2023/09/07 12:15:06;;;;;;;1.38;1.27;;;34.40;45.00;;;;;;5105164;28;20118;-65
2023/09/07 12:17:33;;;;;;;1.10;1.10;;;34.30;44.40;;;;;;5107733;27;20077;-67
2023/09/07 12:19:59;;;;;;;1.00;0.90;;;34.40;44.70;;;;;;5110535;27;20036;-65
2023/09/07 12:22:25;;;;;;;1.10;1.02;;;34.40;44.60;;;;;;5109701;27;20023;-65
2023/09/07 12:24:51;;;;;;;1.80;1.60;;;34.50;44.70;;;;;;5105655;28;20644;-67
2023/09/07 12:27:16;;;;;;;1.73;1.20;;;34.60;44.20;;;;;;5106831;28;20032;-66
2023/09/07 12:29:42;;;;;;;1.23;1.23;;;34.70;44.50;;;;;;5106149;27;20047;-66
2023/09/07 12:32:08;;;;;;;1.80;1.15;;;34.70;44.50;;;;;;5107415;27;20506;-67
2023/09/07 12:34:33;;;;;;;1.10;0.90;;;34.90;44.90;;;;;;5110644;27;20555;-66
2023/09/07 12:36:59;;;;;;;1.83;1.25;;;35.00;45.00;;;;;;5108580;27;20023;-66
2023/09/07 12:39:25;;;;;;;1.35;1.20;;;35.00;45.20;;;;;;5111047;27;20107;-66
2023/09/07 12:41:51;;;;;;;1.50;1.40;;;35.10;44.80;;;;;;5099776;28;21792;-66
2023/09/07 12:44:18;;;;;;;1.30;1.20;;;35.30;45.00;;;;;;5097241;28;20428;-64
2023/09/07 12:46:44;;;;;;;1.55;1.45;;;35.30;44.50;;;;;;5097923;28;20474;-63